KMWC/MWC METAR and TAF weather

Enter ICAO airport designator
Station Type Date Time Source
KMWC METAR 2019/02/20 07:15 UTC NOAA

KMWC 200715Z AUTO 11005KT 10SM OVC090 M01/M07 A3029 RMK AO2


Station Type Date Time Source
KMWC Decoded METAR 2019/02/20 07:15 UTC NOAA

Milwaukee / Timmerman, WI, United States (KMWC) 43-07N 088-02W
Feb 20, 2019 - 02:15 AM EST / 2019.02.20 0715 UTC
Wind: from the ESE (110 degrees) at 6 MPH (5 KT):0
Visibility: 10 mile(s):0
Sky conditions: overcast
Temperature: 30 F (-1 C)
Windchill: 23 F (-5 C):1
Dew Point: 19 F (-7 C)
Relative Humidity: 63%
Pressure (altimeter): 30.29 in. Hg (1025 hPa)
ob: KMWC 200715Z AUTO 11005KT 10SM OVC090 M01/M07 A3029 RMK AO2
cycle: 7

Station Type Date Time Source
KMWC TAF UTC NOAA

Error!


Example: see airport list